Decoded Metar for KRRL (MERRILL in WI, USA) (IATA:RRL) | Meteo·Mobile Aviation Weather
aviador You're here:

KRRL Decoded Metar

MERRILL in WI, USA
Report Time2019-03-20 23:15:00
UTC Time2019-03-20 23:15:30
Flight Rules mvfr MVFR
Wind350° at 08 kt
W.Decomp.*RWY 34: 7.9 kt HW 1.5 kt RCW
RWY 07: 1.5 kt HW 7.9 kt LCW
W.Rank350° ranks 22
Current wind is above 350° avg. (7.4)
Visibility9999 m
Phenomena:Light Drizzle
Clouds:Overcast 012 Hf
Expected CloudBase > 800 ft AGL from Temp-Dew spread
Ceiling1,200 ft
Temp02°C (ISA -10)
Dew Point00°C (87% RH)
AAT-2.9°C
QNH1012 hPa
Density Alt180 ft
Elevation1,316 ft
Report Wrong Elevation
Raw Report
KRRL 202315Z AUTO 35008KT 10SM -DZ OVC012 02/00 A2989 RMK AO2
T00160004 TSNO=

Extra information for KRRL:More info

Metar Taf Metar & Taf Last 4 Metars F.Rules Stats Wind Profile Meteogram Temp Stats Airport Information Weather charts Add Link Nearby VenuesMetar ALERT Operation Metar Decoded Social comments

AIRNAV info for KRRL